METAR Rapporter från flygplatser

 

ESTA - Ängelholm, Sweden
Distance from station: SSV 17km
Uppdaterad: 2021-01-16 18:50
Klart
Klart
 Vind från varies
Vind: varies 4 km/h
Temperatur: -9°C
Daggpunkt: -10°C
Luftfuktighet: 93%
Barometer: 1019 hPa
Clouds: Klart
Visibility: 10 km
2021/01/16 17:50 ESTA 161750Z AUTO VRB02KT 9999 NCD M09/M10 Q1019
ESMT - Halmstad, Sweden
Distance from station: N 26km
Uppdaterad: 2021-01-16 18:50
Klart
Klart
 Vind från SV
Vind: SV 6 km/h
Temperatur: -6°C
Daggpunkt: -8°C
Luftfuktighet: 86%
Barometer: 1019 hPa
Clouds: Klart
Visibility: 10 km
2021/01/16 17:50 ESMT 161750Z AUTO 22003KT 180V240 9999 NCD M06/M08 Q1019
 
ESTL - Ljungbyhed, Sweden
Distance from station: SSO 45km
Uppdaterad: 2021-01-16 18:50
Mist, Övervägande molnigt
Mist, Övervägande molnigt
 Vind från calm
Vind: Vindstilla
Temperatur: -7°C
Daggpunkt: -7°C
Luftfuktighet: 100%
Barometer: 1019 hPa
Summering: Mist
Clouds: Övervägande molnigt
Visibility: 10 km
Cloud details: Övervägande molnigt 1189 m
2021/01/16 17:50 ESTL 161750Z AUTO 00000KT 9999 BR BKN039/// M07/M07 Q1019
EKCH - Copenhagen/Kastrup, Denmark
Distance from station: S 92km
Uppdaterad: 2021-01-16 18:50
Klart
Klart
 Vind från NV
Vind: NV 7 km/h
Temperatur: -2°C
Wind Chill: -6°C
Daggpunkt: -5°C
Luftfuktighet: 80%
Barometer: 1019 hPa
Clouds: Klart
Visibility: 10 km
2021/01/16 17:50 EKCH 161750Z AUTO 32004KT 9999 NCD M02/M05 Q1019 NOSIG
 
ESMK - Kristianstad/Everöd, Sweden
Distance from station: SO 93km
Uppdaterad: 2021-01-16 18:50
Enstaka moln
Enstaka moln
 Vind från V
Vind: V 9 km/h
Temperatur: -5°C
Wind Chill: -9°C
Daggpunkt: -6°C
Luftfuktighet: 93%
Barometer: 1019 hPa
Clouds: Enstaka moln
Visibility: 10 km
Cloud details: Enstaka moln 1372 m
2021/01/16 17:50 ESMK 161750Z AUTO 28005KT 9999 FEW045/// M05/M06 Q1019
ESMS - Malmö/Sturup, Sweden
Distance from station: SSO 104km
Uppdaterad: 2021-01-16 18:50
Övervägande molnigt
Övervägande molnigt
 Vind från NNV
Vind: NNV 15 km/h
Temperatur: -5°C
Wind Chill: -11°C
Daggpunkt: -6°C
Luftfuktighet: 93%
Barometer: 1018 hPa
Clouds: Övervägande molnigt
Visibility: 10 km
Cloud details: Övervägande molnigt 1189 m
2021/01/16 17:50 ESMS 161750Z 34008KT 9999 BKN039 M05/M06 Q1018 R17/710195
 
EKRK - Copenhagen/Roskilde, Denmark
Distance from station: SSV 108km
Uppdaterad: 2021-01-16 18:50
Klart
Klart
 Vind från NV
Vind: NV 2 km/h
Temperatur: -4°C
Daggpunkt: -6°C
Luftfuktighet: 86%
Barometer: 1019 hPa
Clouds: Klart
Visibility: 10 km
2021/01/16 17:50 EKRK 161750Z AUTO 31001KT 9999 NCD M04/M06 Q1019 R99/////// R99/710173
ESMX - Växjö/Kronoberg, Sweden
Distance from station: ONO 124km
Uppdaterad: 2021-01-16 18:50
Helmulet
Helmulet
 Vind från NO
Vind: NO 11 km/h
Temperatur: -3°C
Wind Chill: -7°C
Daggpunkt: -3°C
Luftfuktighet: 100%
Barometer: 1018 hPa
Clouds: Helmulet
Visibility: 10 km
Cloud details: Helmulet 213 m
2021/01/16 17:50 ESMX 161750Z AUTO 04006KT 9999 OVC007/// M03/M03 Q1018
 
EKAH - Tirstrup, Denmark
Distance from station: V 141km
Uppdaterad: 2021-01-16 18:50
Klart
Klart
 Vind från OSO
Vind: OSO 2 km/h
Temperatur: -5°C
Daggpunkt: -6°C
Luftfuktighet: 93%
Barometer: 1020 hPa
Clouds: Klart
Visibility: 10 km
2021/01/16 17:50 EKAH 161750Z AUTO 12001KT 9999 NCD M05/M06 Q1020 R99/720395
ESGG - Göteborg/Landvetter, Sweden
Distance from station: NNV 142km
Uppdaterad: 2021-01-16 18:50
Klart
Klart
 Vind från NO
Vind: NO 7 km/h
Temperatur: -9°C
Wind Chill: -13°C
Daggpunkt: -10°C
Luftfuktighet: 93%
Barometer: 1018 hPa
Summering: Klart
Visibility: greater than 10 km
2021/01/16 17:50 ESGG 161750Z 05004KT CAVOK M09/M10 Q1018 R03/19//95
 
ESDF - Ronneby, Sweden
Distance from station: O 147km
Uppdaterad: 2021-01-16 18:50
Övervägande molnigt
Övervägande molnigt
 Vind från N
Vind: N 9 km/h
Temperatur: -3°C
Wind Chill: -7°C
Daggpunkt: -4°C
Luftfuktighet: 93%
Barometer: 1018 hPa
Clouds: Övervägande molnigt
Visibility: 10 km
Cloud details: Övervägande molnigt 1768 m
2021/01/16 17:50 ESDF 161750Z AUTO 36005KT 9999 BKN058/// M03/M04 Q1018
ESGP - Göteborg/Säve, Sweden
Distance from station: NNV 161km
Uppdaterad: 2017-01-02 11:20
NOT Current
Klart
Klart
 Vind från calm
Vind: Vindstilla
Temperatur: -2°C
Daggpunkt: -4°C
Luftfuktighet: 86%
Barometer: 1012 hPa
Clouds: Klart
Visibility: 10 km
2017/01/02 10:20 ESGP 021020Z AUTO 00000KT 9999 NCD M02/M04 Q1012
 
ESGJ - Jönköping Airport, Sweden
Distance from station: NNO 164km
Uppdaterad: 2021-01-16 18:50
Helmulet
Helmulet
 Vind från NNV
Vind: NNV 4 km/h
Temperatur: -7°C
Daggpunkt: -7°C
Luftfuktighet: 100%
Barometer: 1018 hPa
Clouds: Helmulet
Visibility: 1 km
Cloud details: Helmulet 61 m
2021/01/16 17:50 ESGJ 161750Z AUTO 33002KT 1300 R01/P1500N R19/P1500N OVC002/// M07/M07 Q1018
EKAV - Avno, Denmark
Distance from station: SSV 168km
Uppdaterad: 2016-10-04 06:20
NOT Current
Klart
Klart
 
Barometer: 1039 hPa
Clouds: Klart
Visibility: 10 km
2016/10/04 04:20 EKAV 040420Z AUTO ///// 9999NDV NCD ///// Q1039
 
EKRN - Rönne, Denmark
Distance from station: SO 191km
Uppdaterad: 2021-01-16 18:50
Övervägande molnigt
Övervägande molnigt
 Vind från NNV
Vind: NNV 11 km/h
Temperatur: 0°C
Wind Chill: -4°C
Daggpunkt: -1°C
Luftfuktighet: 93%
Barometer: 1018 hPa
Clouds: Övervägande molnigt
Visibility: 10 km
Cloud details: Delvis molnigt 488 m
Övervägande molnigt 1311 m
2021/01/16 17:50 EKRN 161750Z AUTO 34006KT 310V020 9999 SCT016/// BKN043/// 00/M01 Q1018
EKOD - Odense/Beldringe, Denmark
Distance from station: VSV 193km
Uppdaterad: 2021-01-16 14:50
NOT Current
Övervägande molnigt
Övervägande molnigt
 Vind från S
Vind: S 2 km/h
Temperatur: -1°C
Daggpunkt: -2°C
Luftfuktighet: 93%
Barometer: 1021 hPa
Clouds: Övervägande molnigt
Visibility: 10 km
Cloud details: Övervägande molnigt 518 m
2021/01/16 13:50 EKOD 161350Z 19001KT 9999 BKN017 M01/M02 Q1021
 
EKYT - AAlborg, Denmark
Distance from station: VNV 199km
Uppdaterad: 2021-01-16 19:12
Klart
Klart
 Vind från O
Vind: O 6 km/h
Temperatur: -6°C
Daggpunkt: -7°C
Luftfuktighet: 93%
Barometer: 1019 hPa
Clouds: Klart
Visibility: 7 km
2021/01/16 18:12 EKYT 161812Z AUTO 10003KT 7000 NCD M06/M07 Q1019
EKSN - Sindal Airport, Denmark
Distance from station: NV 201km
Uppdaterad: 2021-01-15 14:50
NOT Current
Övervägande molnigt
Övervägande molnigt
 Vind från NNV
Vind: NNV 11 km/h
Temperatur: -1°C
Wind Chill: -5°C
Daggpunkt: -5°C
Luftfuktighet: 75%
Barometer: 1028 hPa
Clouds: Övervägande molnigt
Visibility: 10 km
Cloud details: Övervägande molnigt 671 m
2021/01/15 13:50 EKSN 151350Z 34006KT 9999 BKN022 M01/M05 Q1028 R08/420293
 
ESMQ - Kalmar, Sweden
Distance from station: O 211km
Uppdaterad: 2021-01-16 18:50
Helmulet
Helmulet
 Vind från NNV
Vind: NNV 13 km/h
Temperatur: -2°C
Wind Chill: -7°C
Daggpunkt: -2°C
Luftfuktighet: 100%
Barometer: 1018 hPa
Clouds: Helmulet
Visibility: 10 km
Cloud details: Helmulet 335 m
2021/01/16 17:50 ESMQ 161750Z AUTO 34007KT 9999 OVC011/// M02/M02 Q1018
ESGT - Trollhättan, Sweden
Distance from station: N 212km
Uppdaterad: 2021-01-16 18:50
Helmulet
Helmulet
 Vind från OSO
Vind: OSO 9 km/h
Temperatur: -6°C
Wind Chill: -11°C
Daggpunkt: -6°C
Luftfuktighet: 100%
Barometer: 1020 hPa
Clouds: Helmulet
Visibility: 10 km
Cloud details: Helmulet 91 m
2021/01/16 17:50 ESGT 161750Z AUTO 11005KT 9999 OVC003/// M06/M06 Q1020